sensor_id;sensor_type;location;lat;lon;timestamp;P1;durP1;ratioP1;P2;durP2;ratioP2
21386;SDS011;10854;45.922;6.716;2022-08-04T05:14:31;2.83;;;2.10;;
21386;SDS011;10854;45.922;6.716;2022-08-04T05:17:21;3.47;;;2.10;;
21386;SDS011;10854;45.922;6.716;2022-08-04T05:20:02;4.33;;;2.20;;
21386;SDS011;10854;45.922;6.716;2022-08-04T05:23:10;6.77;;;2.43;;
21386;SDS011;10854;45.922;6.716;2022-08-04T05:25:46;4.17;;;2.17;;
21386;SDS011;10854;45.922;6.716;2022-08-04T05:28:24;11.00;;;2.20;;
21386;SDS011;10854;45.922;6.716;2022-08-04T05:30:58;9.13;;;2.50;;
21386;SDS011;10854;45.922;6.716;2022-08-04T05:33:33;10.53;;;2.57;;
21386;SDS011;10854;45.922;6.716;2022-08-04T05:36:09;9.83;;;3.00;;
21386;SDS011;10854;45.922;6.716;2022-08-04T05:38:53;9.80;;;2.80;;
21386;SDS011;10854;45.922;6.716;2022-08-04T05:41:27;11.50;;;2.37;;
21386;SDS011;10854;45.922;6.716;2022-08-04T05:43:57;7.60;;;2.43;;
21386;SDS011;10854;45.922;6.716;2022-08-04T05:46:27;11.90;;;2.90;;
21386;SDS011;10854;45.922;6.716;2022-08-04T05:48:57;9.80;;;2.53;;
21386;SDS011;10854;45.922;6.716;2022-08-04T05:51:26;7.72;;;2.72;;
21386;SDS011;10854;45.922;6.716;2022-08-04T05:53:57;10.90;;;3.20;;
21386;SDS011;10854;45.922;6.716;2022-08-04T05:56:26;11.48;;;3.20;;
21386;SDS011;10854;45.922;6.716;2022-08-04T05:58:56;16.98;;;3.28;;
21386;SDS011;10854;45.922;6.716;2022-08-04T06:01:25;18.35;;;4.13;;
21386;SDS011;10854;45.922;6.716;2022-08-04T06:03:56;13.18;;;3.20;;
21386;SDS011;10854;45.922;6.716;2022-08-04T06:06:26;12.50;;;3.60;;
21386;SDS011;10854;45.922;6.716;2022-08-04T06:08:58;12.40;;;3.30;;
21386;SDS011;10854;45.922;6.716;2022-08-04T06:11:27;12.75;;;3.00;;
21386;SDS011;10854;45.922;6.716;2022-08-04T06:13:57;47.33;;;5.28;;
21386;SDS011;10854;45.922;6.716;2022-08-04T06:16:33;7.07;;;2.50;;
21386;SDS011;10854;45.922;6.716;2022-08-04T06:19:06;25.10;;;3.63;;
21386;SDS011;10854;45.922;6.716;2022-08-04T06:21:36;4.88;;;2.40;;
21386;SDS011;10854;45.922;6.716;2022-08-04T06:24:09;7.72;;;2.40;;
21386;SDS011;10854;45.922;6.716;2022-08-04T06:26:41;10.88;;;2.88;;
21386;SDS011;10854;45.922;6.716;2022-08-04T06:29:10;19.15;;;3.58;;
21386;SDS011;10854;45.922;6.716;2022-08-04T06:32:03;22.73;;;4.30;;
21386;SDS011;10854;45.922;6.716;2022-08-04T06:35:00;9.13;;;2.95;;
21386;SDS011;10854;45.922;6.716;2022-08-04T06:37:31;12.02;;;3.17;;
21386;SDS011;10854;45.922;6.716;2022-08-04T06:40:01;15.20;;;3.08;;
21386;SDS011;10854;45.922;6.716;2022-08-04T06:42:30;12.40;;;2.78;;
21386;SDS011;10854;45.922;6.716;2022-08-04T06:45:01;4.57;;;2.13;;
21386;SDS011;10854;45.922;6.716;2022-08-04T06:47:32;7.32;;;2.45;;
21386;SDS011;10854;45.922;6.716;2022-08-04T06:50:04;6.10;;;2.42;;
21386;SDS011;10854;45.922;6.716;2022-08-04T06:52:36;4.53;;;2.45;;
21386;SDS011;10854;45.922;6.716;2022-08-04T06:55:05;5.28;;;2.28;;
21386;SDS011;10854;45.922;6.716;2022-08-04T06:57:34;3.50;;;2.05;;
21386;SDS011;10854;45.922;6.716;2022-08-04T07:02:45;5.00;;;2.40;;
21386;SDS011;10854;45.922;6.716;2022-08-04T07:05:18;7.90;;;2.33;;
21386;SDS011;10854;45.922;6.716;2022-08-04T07:07:47;10.15;;;2.60;;
21386;SDS011;10854;45.922;6.716;2022-08-04T07:10:16;7.82;;;2.50;;
21386;SDS011;10854;45.922;6.716;2022-08-04T07:12:48;4.32;;;1.98;;
21386;SDS011;10854;45.922;6.716;2022-08-04T07:15:16;3.08;;;2.05;;
21386;SDS011;10854;45.922;6.716;2022-08-04T07:17:46;9.30;;;2.20;;
21386;SDS011;10854;45.922;6.716;2022-08-04T07:20:16;6.75;;;2.30;;
21386;SDS011;10854;45.922;6.716;2022-08-04T07:22:46;4.90;;;1.90;;
21386;SDS011;10854;45.922;6.716;2022-08-04T07:25:16;6.50;;;2.13;;
21386;SDS011;10854;45.922;6.716;2022-08-04T07:27:45;3.83;;;1.92;;
21386;SDS011;10854;45.922;6.716;2022-08-04T07:30:15;2.90;;;1.75;;
21386;SDS011;10854;45.922;6.716;2022-08-04T07:32:47;6.68;;;2.25;;
21386;SDS011;10854;45.922;6.716;2022-08-04T07:35:16;10.60;;;2.45;;
21386;SDS011;10854;45.922;6.716;2022-08-04T07:37:45;5.70;;;2.20;;
21386;SDS011;10854;45.922;6.716;2022-08-04T07:40:13;4.28;;;2.20;;
21386;SDS011;10854;45.922;6.716;2022-08-04T07:42:42;11.43;;;2.30;;
21386;SDS011;10854;45.922;6.716;2022-08-04T07:45:11;6.22;;;2.03;;
21386;SDS011;10854;45.922;6.716;2022-08-04T07:47:41;6.47;;;2.13;;
21386;SDS011;10854;45.922;6.716;2022-08-04T07:50:10;10.98;;;2.20;;
21386;SDS011;10854;45.922;6.716;2022-08-04T07:52:39;6.05;;;2.33;;
21386;SDS011;10854;45.922;6.716;2022-08-04T07:55:08;6.30;;;1.92;;
21386;SDS011;10854;45.922;6.716;2022-08-04T07:57:37;4.22;;;2.15;;
21386;SDS011;10854;45.922;6.716;2022-08-04T08:00:08;5.55;;;1.80;;
21386;SDS011;10854;45.922;6.716;2022-08-04T08:02:38;3.35;;;2.00;;
21386;SDS011;10854;45.922;6.716;2022-08-04T08:05:15;3.05;;;1.70;;
21386;SDS011;10854;45.922;6.716;2022-08-04T08:07:49;2.33;;;1.70;;
21386;SDS011;10854;45.922;6.716;2022-08-04T08:10:18;5.30;;;2.03;;
21386;SDS011;10854;45.922;6.716;2022-08-04T08:12:47;3.75;;;1.75;;
21386;SDS011;10854;45.922;6.716;2022-08-04T08:15:17;3.47;;;1.83;;
21386;SDS011;10854;45.922;6.716;2022-08-04T08:17:47;13.88;;;2.60;;
21386;SDS011;10854;45.922;6.716;2022-08-04T08:20:16;3.30;;;1.85;;
21386;SDS011;10854;45.922;6.716;2022-08-04T08:22:44;5.82;;;1.83;;
21386;SDS011;10854;45.922;6.716;2022-08-04T08:25:13;2.83;;;1.80;;
21386;SDS011;10854;45.922;6.716;2022-08-04T08:27:42;4.45;;;1.58;;
21386;SDS011;10854;45.922;6.716;2022-08-04T08:30:10;3.75;;;1.40;;
21386;SDS011;10854;45.922;6.716;2022-08-04T08:32:41;2.53;;;1.75;;
21386;SDS011;10854;45.922;6.716;2022-08-04T08:35:09;4.57;;;1.67;;
21386;SDS011;10854;45.922;6.716;2022-08-04T08:37:40;3.35;;;1.85;;
21386;SDS011;10854;45.922;6.716;2022-08-04T08:46:03;2.90;;;1.58;;
21386;SDS011;10854;45.922;6.716;2022-08-04T08:48:49;3.33;;;1.80;;
21386;SDS011;10854;45.922;6.716;2022-08-04T08:51:39;4.85;;;1.77;;
21386;SDS011;10854;45.922;6.716;2022-08-04T09:00:16;5.38;;;1.65;;
21386;SDS011;10854;45.922;6.716;2022-08-04T09:02:56;5.30;;;1.83;;
21386;SDS011;10854;45.922;6.716;2022-08-04T09:11:47;3.97;;;1.60;;
21386;SDS011;10854;45.922;6.716;2022-08-04T09:14:32;3.53;;;1.42;;
21386;SDS011;10854;45.922;6.716;2022-08-04T09:17:29;6.60;;;1.70;;
21386;SDS011;10854;45.922;6.716;2022-08-04T09:20:18;3.53;;;1.80;;
21386;SDS011;10854;45.922;6.716;2022-08-04T09:25:57;2.28;;;1.50;;
21386;SDS011;10854;45.922;6.716;2022-08-04T09:28:42;3.58;;;1.60;;
21386;SDS011;10854;45.922;6.716;2022-08-04T09:31:22;4.90;;;1.55;;
21386;SDS011;10854;45.922;6.716;2022-08-04T09:34:03;4.53;;;1.77;;
21386;SDS011;10854;45.922;6.716;2022-08-04T09:36:45;5.70;;;1.88;;
21386;SDS011;10854;45.922;6.716;2022-08-04T09:45:26;5.03;;;1.70;;
21386;SDS011;10854;45.922;6.716;2022-08-04T09:48:12;3.42;;;1.50;;
21386;SDS011;10854;45.922;6.716;2022-08-04T09:50:49;3.85;;;1.85;;
21386;SDS011;10854;45.922;6.716;2022-08-04T09:59:27;5.10;;;1.60;;
21386;SDS011;10854;45.922;6.716;2022-08-04T10:02:12;4.47;;;1.80;;
21386;SDS011;10854;45.922;6.716;2022-08-04T10:04:42;2.50;;;1.42;;
21386;SDS011;10854;45.922;6.716;2022-08-04T10:07:23;2.97;;;1.58;;
21386;SDS011;10854;45.922;6.716;2022-08-04T10:19:34;2.95;;;1.75;;
21386;SDS011;10854;45.922;6.716;2022-08-04T10:22:16;3.33;;;1.70;;
21386;SDS011;10854;45.922;6.716;2022-08-04T10:27:37;2.90;;;1.70;;
21386;SDS011;10854;45.922;6.716;2022-08-04T10:30:15;3.60;;;1.67;;
21386;SDS011;10854;45.922;6.716;2022-08-04T10:32:49;2.90;;;1.60;;
21386;SDS011;10854;45.922;6.716;2022-08-04T10:35:43;2.47;;;1.73;;
21386;SDS011;10854;45.922;6.716;2022-08-04T10:38:32;3.58;;;1.70;;
21386;SDS011;10854;45.922;6.716;2022-08-04T10:41:26;5.30;;;1.60;;
21386;SDS011;10854;45.922;6.716;2022-08-04T10:44:16;2.25;;;1.58;;
21386;SDS011;10854;45.922;6.716;2022-08-04T10:46:54;3.40;;;1.60;;
21386;SDS011;10854;45.922;6.716;2022-08-04T10:55:19;2.80;;;1.63;;
21386;SDS011;10854;45.922;6.716;2022-08-04T11:00:23;4.88;;;1.73;;
21386;SDS011;10854;45.922;6.716;2022-08-04T11:05:56;4.60;;;1.45;;
21386;SDS011;10854;45.922;6.716;2022-08-04T11:08:28;3.53;;;1.60;;
21386;SDS011;10854;45.922;6.716;2022-08-04T11:14:03;3.03;;;1.58;;
21386;SDS011;10854;45.922;6.716;2022-08-04T11:17:00;4.00;;;1.40;;
21386;SDS011;10854;45.922;6.716;2022-08-04T11:19:45;8.88;;;2.22;;
21386;SDS011;10854;45.922;6.716;2022-08-04T11:28:21;4.53;;;1.60;;
21386;SDS011;10854;45.922;6.716;2022-08-04T11:30:49;7.60;;;1.92;;
21386;SDS011;10854;45.922;6.716;2022-08-04T11:36:15;2.85;;;1.35;;
21386;SDS011;10854;45.922;6.716;2022-08-04T11:39:07;1.90;;;1.50;;
21386;SDS011;10854;45.922;6.716;2022-08-04T11:41:55;2.60;;;1.45;;
21386;SDS011;10854;45.922;6.716;2022-08-04T11:44:29;3.92;;;1.63;;
21386;SDS011;10854;45.922;6.716;2022-08-04T11:47:10;3.95;;;1.67;;
21386;SDS011;10854;45.922;6.716;2022-08-04T11:49:58;13.13;;;2.00;;
21386;SDS011;10854;45.922;6.716;2022-08-04T11:52:33;1.70;;;1.50;;
21386;SDS011;10854;45.922;6.716;2022-08-04T11:55:08;2.47;;;1.55;;
21386;SDS011;10854;45.922;6.716;2022-08-04T11:57:40;3.55;;;1.48;;
21386;SDS011;10854;45.922;6.716;2022-08-04T12:00:11;4.10;;;1.70;;
21386;SDS011;10854;45.922;6.716;2022-08-04T12:05:29;3.28;;;1.60;;
21386;SDS011;10854;45.922;6.716;2022-08-04T12:08:42;3.08;;;1.70;;
21386;SDS011;10854;45.922;6.716;2022-08-04T12:16:57;1.75;;;1.63;;
21386;SDS011;10854;45.922;6.716;2022-08-04T12:19:48;3.78;;;1.58;;
21386;SDS011;10854;45.922;6.716;2022-08-04T12:22:23;2.38;;;1.80;;
21386;SDS011;10854;45.922;6.716;2022-08-04T12:25:02;2.10;;;1.70;;
21386;SDS011;10854;45.922;6.716;2022-08-04T12:27:35;1.92;;;1.77;;
21386;SDS011;10854;45.922;6.716;2022-08-04T12:30:08;2.10;;;1.70;;
21386;SDS011;10854;45.922;6.716;2022-08-04T12:32:40;2.92;;;1.60;;
21386;SDS011;10854;45.922;6.716;2022-08-04T12:37:59;2.40;;;1.77;;
21386;SDS011;10854;45.922;6.716;2022-08-04T12:40:39;3.25;;;1.75;;
21386;SDS011;10854;45.922;6.716;2022-08-04T12:43:10;1.90;;;1.65;;
21386;SDS011;10854;45.922;6.716;2022-08-04T12:45:54;3.60;;;1.65;;
21386;SDS011;10854;45.922;6.716;2022-08-04T12:48:29;2.22;;;1.90;;
21386;SDS011;10854;45.922;6.716;2022-08-04T12:51:00;2.88;;;1.77;;
21386;SDS011;10854;45.922;6.716;2022-08-04T12:53:33;6.20;;;1.80;;
21386;SDS011;10854;45.922;6.716;2022-08-04T12:56:05;3.55;;;1.80;;
21386;SDS011;10854;45.922;6.716;2022-08-04T12:58:37;3.25;;;1.90;;
21386;SDS011;10854;45.922;6.716;2022-08-04T13:01:20;3.83;;;1.55;;
21386;SDS011;10854;45.922;6.716;2022-08-04T13:03:51;2.03;;;1.73;;
21386;SDS011;10854;45.922;6.716;2022-08-04T13:06:25;4.30;;;1.60;;
21386;SDS011;10854;45.922;6.716;2022-08-04T13:09:06;3.60;;;1.80;;
21386;SDS011;10854;45.922;6.716;2022-08-04T13:11:39;1.70;;;1.60;;
21386;SDS011;10854;45.922;6.716;2022-08-04T13:14:10;4.68;;;1.73;;
21386;SDS011;10854;45.922;6.716;2022-08-04T13:16:58;2.25;;;1.70;;
21386;SDS011;10854;45.922;6.716;2022-08-04T13:19:28;2.22;;;1.52;;
21386;SDS011;10854;45.922;6.716;2022-08-04T13:21:57;2.90;;;1.60;;
21386;SDS011;10854;45.922;6.716;2022-08-04T13:24:27;3.30;;;1.70;;
21386;SDS011;10854;45.922;6.716;2022-08-04T13:27:00;3.70;;;1.60;;
21386;SDS011;10854;45.922;6.716;2022-08-04T13:29:44;4.47;;;1.70;;
21386;SDS011;10854;45.922;6.716;2022-08-04T13:32:22;3.28;;;1.50;;
21386;SDS011;10854;45.922;6.716;2022-08-04T13:34:52;1.65;;;1.40;;
21386;SDS011;10854;45.922;6.716;2022-08-04T13:37:29;2.10;;;1.90;;
21386;SDS011;10854;45.922;6.716;2022-08-04T13:40:04;4.60;;;2.03;;
21386;SDS011;10854;45.922;6.716;2022-08-04T13:42:35;2.80;;;1.85;;
21386;SDS011;10854;45.922;6.716;2022-08-04T13:45:05;2.15;;;1.75;;
21386;SDS011;10854;45.922;6.716;2022-08-04T13:47:37;5.30;;;1.88;;
21386;SDS011;10854;45.922;6.716;2022-08-04T13:50:07;8.70;;;2.03;;
21386;SDS011;10854;45.922;6.716;2022-08-04T13:52:44;6.88;;;2.17;;
21386;SDS011;10854;45.922;6.716;2022-08-04T13:55:24;2.35;;;2.15;;
21386;SDS011;10854;45.922;6.716;2022-08-04T13:57:58;6.07;;;1.90;;
21386;SDS011;10854;45.922;6.716;2022-08-04T14:03:21;4.70;;;2.03;;
21386;SDS011;10854;45.922;6.716;2022-08-04T14:06:05;2.50;;;2.08;;
21386;SDS011;10854;45.922;6.716;2022-08-04T14:08:47;2.88;;;2.05;;
21386;SDS011;10854;45.922;6.716;2022-08-04T14:11:18;4.60;;;1.65;;
21386;SDS011;10854;45.922;6.716;2022-08-04T14:13:57;4.72;;;1.90;;
21386;SDS011;10854;45.922;6.716;2022-08-04T14:16:27;2.80;;;1.90;;
21386;SDS011;10854;45.922;6.716;2022-08-04T14:18:59;4.05;;;2.00;;
21386;SDS011;10854;45.922;6.716;2022-08-04T14:21:28;5.65;;;2.40;;
21386;SDS011;10854;45.922;6.716;2022-08-04T14:24:03;4.80;;;2.10;;
21386;SDS011;10854;45.922;6.716;2022-08-04T14:26:32;4.55;;;2.30;;
21386;SDS011;10854;45.922;6.716;2022-08-04T14:29:08;3.03;;;1.75;;
21386;SDS011;10854;45.922;6.716;2022-08-04T14:31:39;5.13;;;2.40;;
21386;SDS011;10854;45.922;6.716;2022-08-04T14:34:08;6.07;;;2.08;;
21386;SDS011;10854;45.922;6.716;2022-08-04T14:36:42;5.68;;;2.10;;
21386;SDS011;10854;45.922;6.716;2022-08-04T14:39:11;3.40;;;2.28;;
21386;SDS011;10854;45.922;6.716;2022-08-04T14:41:44;4.78;;;2.10;;
21386;SDS011;10854;45.922;6.716;2022-08-04T14:44:16;3.65;;;2.00;;
21386;SDS011;10854;45.922;6.716;2022-08-04T14:46:49;2.92;;;2.20;;
21386;SDS011;10854;45.922;6.716;2022-08-04T14:49:22;4.53;;;2.10;;
21386;SDS011;10854;45.922;6.716;2022-08-04T14:51:56;3.50;;;1.90;;
21386;SDS011;10854;45.922;6.716;2022-08-04T14:54:27;2.20;;;1.80;;
21386;SDS011;10854;45.922;6.716;2022-08-04T14:57:01;4.15;;;2.05;;
21386;SDS011;10854;45.922;6.716;2022-08-04T14:59:53;4.40;;;2.20;;
21386;SDS011;10854;45.922;6.716;2022-08-04T15:02:21;2.83;;;2.10;;
21386;SDS011;10854;45.922;6.716;2022-08-04T15:04:50;4.05;;;2.08;;
21386;SDS011;10854;45.922;6.716;2022-08-04T15:07:19;4.05;;;2.13;;
21386;SDS011;10854;45.922;6.716;2022-08-04T15:09:47;3.97;;;2.17;;
21386;SDS011;10854;45.922;6.716;2022-08-04T15:12:16;5.40;;;1.85;;
21386;SDS011;10854;45.922;6.716;2022-08-04T15:14:45;2.20;;;1.95;;
21386;SDS011;10854;45.922;6.716;2022-08-04T15:17:14;4.13;;;1.80;;
21386;SDS011;10854;45.922;6.716;2022-08-04T15:19:44;4.22;;;2.30;;
21386;SDS011;10854;45.922;6.716;2022-08-04T15:22:12;3.17;;;2.05;;
21386;SDS011;10854;45.922;6.716;2022-08-04T15:24:41;8.15;;;2.00;;
21386;SDS011;10854;45.922;6.716;2022-08-04T15:27:09;4.43;;;1.88;;
21386;SDS011;10854;45.922;6.716;2022-08-04T15:29:40;2.72;;;1.80;;
21386;SDS011;10854;45.922;6.716;2022-08-04T15:32:14;4.22;;;1.90;;
21386;SDS011;10854;45.922;6.716;2022-08-04T15:34:47;2.38;;;2.00;;
21386;SDS011;10854;45.922;6.716;2022-08-04T15:37:41;2.20;;;2.00;;
21386;SDS011;10854;45.922;6.716;2022-08-04T15:40:18;4.75;;;2.15;;
21386;SDS011;10854;45.922;6.716;2022-08-04T15:45:55;2.58;;;1.60;;
21386;SDS011;10854;45.922;6.716;2022-08-04T15:48:31;1.77;;;1.65;;
21386;SDS011;10854;45.922;6.716;2022-08-04T15:51:02;1.98;;;1.73;;
21386;SDS011;10854;45.922;6.716;2022-08-04T15:58:52;3.60;;;1.80;;
21386;SDS011;10854;45.922;6.716;2022-08-04T16:01:21;2.90;;;1.80;;
21386;SDS011;10854;45.922;6.716;2022-08-04T16:03:51;1.55;;;1.45;;
21386;SDS011;10854;45.922;6.716;2022-08-04T16:14:06;10.52;;;2.00;;
21386;SDS011;10854;45.922;6.716;2022-08-04T16:21:50;4.65;;;2.40;;
21386;SDS011;10854;45.922;6.716;2022-08-04T16:24:27;5.75;;;2.35;;
21386;SDS011;10854;45.922;6.716;2022-08-04T16:26:57;4.93;;;2.22;;
21386;SDS011;10854;45.922;6.716;2022-08-04T16:29:31;5.53;;;2.38;;
21386;SDS011;10854;45.922;6.716;2022-08-04T16:34:51;6.63;;;2.33;;
21386;SDS011;10854;45.922;6.716;2022-08-04T16:43:04;3.30;;;2.13;;
21386;SDS011;10854;45.922;6.716;2022-08-04T16:48:12;17.52;;;3.60;;
21386;SDS011;10854;45.922;6.716;2022-08-04T16:50:46;30.05;;;3.95;;
21386;SDS011;10854;45.922;6.716;2022-08-04T16:53:18;36.13;;;4.53;;
21386;SDS011;10854;45.922;6.716;2022-08-04T16:55:48;19.38;;;3.58;;
21386;SDS011;10854;45.922;6.716;2022-08-04T16:58:29;3.80;;;2.63;;
21386;SDS011;10854;45.922;6.716;2022-08-04T17:01:06;23.88;;;4.13;;
21386;SDS011;10854;45.922;6.716;2022-08-04T17:03:37;13.85;;;3.03;;
21386;SDS011;10854;45.922;6.716;2022-08-04T17:06:12;12.88;;;3.10;;
21386;SDS011;10854;45.922;6.716;2022-08-04T17:08:41;12.48;;;2.90;;
21386;SDS011;10854;45.922;6.716;2022-08-04T17:11:11;20.20;;;3.47;;
21386;SDS011;10854;45.922;6.716;2022-08-04T17:13:45;8.80;;;3.00;;
21386;SDS011;10854;45.922;6.716;2022-08-04T17:16:15;7.32;;;2.70;;
21386;SDS011;10854;45.922;6.716;2022-08-04T17:18:47;19.38;;;6.95;;
21386;SDS011;10854;45.922;6.716;2022-08-04T17:21:18;18.73;;;3.85;;
21386;SDS011;10854;45.922;6.716;2022-08-04T17:23:56;7.32;;;3.00;;
21386;SDS011;10854;45.922;6.716;2022-08-04T17:26:26;6.90;;;2.90;;
21386;SDS011;10854;45.922;6.716;2022-08-04T17:28:57;8.40;;;3.00;;
21386;SDS011;10854;45.922;6.716;2022-08-04T17:31:28;11.50;;;2.92;;
21386;SDS011;10854;45.922;6.716;2022-08-04T17:33:59;8.20;;;3.05;;
21386;SDS011;10854;45.922;6.716;2022-08-04T17:36:30;4.95;;;2.63;;
21386;SDS011;10854;45.922;6.716;2022-08-04T17:39:00;3.33;;;2.47;;
21386;SDS011;10854;45.922;6.716;2022-08-04T17:41:39;5.18;;;2.95;;
21386;SDS011;10854;45.922;6.716;2022-08-04T17:44:08;34.22;;;15.48;;
21386;SDS011;10854;45.922;6.716;2022-08-04T17:46:41;24.58;;;11.18;;
21386;SDS011;10854;45.922;6.716;2022-08-04T17:51:45;6.38;;;3.20;;
21386;SDS011;10854;45.922;6.716;2022-08-04T17:54:20;4.85;;;3.60;;
21386;SDS011;10854;45.922;6.716;2022-08-04T17:56:57;4.38;;;3.20;;
21386;SDS011;10854;45.922;6.716;2022-08-04T18:02:07;5.25;;;3.60;;
21386;SDS011;10854;45.922;6.716;2022-08-04T18:07:15;7.65;;;3.42;;
21386;SDS011;10854;45.922;6.716;2022-08-04T18:12:35;4.50;;;3.13;;
21386;SDS011;10854;45.922;6.716;2022-08-04T18:15:05;4.38;;;3.75;;
21386;SDS011;10854;45.922;6.716;2022-08-04T18:17:52;4.22;;;3.75;;
21386;SDS011;10854;45.922;6.716;2022-08-04T18:20:23;6.22;;;3.30;;
21386;SDS011;10854;45.922;6.716;2022-08-04T18:22:52;5.35;;;3.60;;
21386;SDS011;10854;45.922;6.716;2022-08-04T18:25:21;4.35;;;3.65;;
21386;SDS011;10854;45.922;6.716;2022-08-04T18:27:50;4.32;;;3.78;;
21386;SDS011;10854;45.922;6.716;2022-08-04T18:30:23;5.38;;;3.40;;
21386;SDS011;10854;45.922;6.716;2022-08-04T18:32:53;4.03;;;3.67;;
21386;SDS011;10854;45.922;6.716;2022-08-04T18:35:23;4.60;;;3.22;;
21386;SDS011;10854;45.922;6.716;2022-08-04T18:37:51;4.43;;;3.30;;
21386;SDS011;10854;45.922;6.716;2022-08-04T18:40:20;5.00;;;4.40;;
21386;SDS011;10854;45.922;6.716;2022-08-04T18:42:49;7.13;;;3.27;;
21386;SDS011;10854;45.922;6.716;2022-08-04T18:45:18;5.17;;;3.60;;
21386;SDS011;10854;45.922;6.716;2022-08-04T18:47:46;4.10;;;3.70;;
21386;SDS011;10854;45.922;6.716;2022-08-04T18:50:17;3.83;;;3.50;;
21386;SDS011;10854;45.922;6.716;2022-08-04T18:52:48;3.83;;;3.43;;
21386;SDS011;10854;45.922;6.716;2022-08-04T18:55:16;3.50;;;3.30;;
21386;SDS011;10854;45.922;6.716;2022-08-04T18:57:45;4.53;;;3.40;;
21386;SDS011;10854;45.922;6.716;2022-08-04T19:00:13;4.83;;;3.43;;
21386;SDS011;10854;45.922;6.716;2022-08-04T19:02:42;3.97;;;3.60;;
21386;SDS011;10854;45.922;6.716;2022-08-04T19:05:11;3.75;;;3.40;;
21386;SDS011;10854;45.922;6.716;2022-08-04T19:07:39;9.33;;;8.40;;
21386;SDS011;10854;45.922;6.716;2022-08-04T19:10:09;4.10;;;3.70;;
21386;SDS011;10854;45.922;6.716;2022-08-04T19:12:37;6.20;;;5.60;;
21386;SDS011;10854;45.922;6.716;2022-08-04T19:15:06;5.17;;;3.60;;
21386;SDS011;10854;45.922;6.716;2022-08-04T19:17:37;4.57;;;3.40;;
21386;SDS011;10854;45.922;6.716;2022-08-04T19:20:06;3.55;;;3.25;;
21386;SDS011;10854;45.922;6.716;2022-08-04T19:22:38;3.60;;;3.30;;
21386;SDS011;10854;45.922;6.716;2022-08-04T19:25:07;4.50;;;3.30;;
21386;SDS011;10854;45.922;6.716;2022-08-04T19:27:36;3.75;;;3.45;;
21386;SDS011;10854;45.922;6.716;2022-08-04T19:30:05;5.67;;;4.57;;
21386;SDS011;10854;45.922;6.716;2022-08-04T19:32:34;5.50;;;5.00;;
21386;SDS011;10854;45.922;6.716;2022-08-04T19:35:03;4.30;;;3.90;;
21386;SDS011;10854;45.922;6.716;2022-08-04T19:37:32;4.00;;;3.60;;
21386;SDS011;10854;45.922;6.716;2022-08-04T19:40:03;6.27;;;3.70;;
21386;SDS011;10854;45.922;6.716;2022-08-04T19:42:32;3.67;;;3.37;;
21386;SDS011;10854;45.922;6.716;2022-08-04T19:45:02;4.07;;;3.73;;
21386;SDS011;10854;45.922;6.716;2022-08-04T19:47:31;6.40;;;4.07;;
21386;SDS011;10854;45.922;6.716;2022-08-04T19:50:03;4.70;;;3.80;;
21386;SDS011;10854;45.922;6.716;2022-08-04T19:52:34;3.67;;;3.38;;
21386;SDS011;10854;45.922;6.716;2022-08-04T19:55:04;4.38;;;4.03;;
21386;SDS011;10854;45.922;6.716;2022-08-04T19:57:33;6.77;;;4.27;;
21386;SDS011;10854;45.922;6.716;2022-08-04T20:00:03;4.70;;;4.30;;
21386;SDS011;10854;45.922;6.716;2022-08-04T20:02:32;4.50;;;4.10;;
21386;SDS011;10854;45.922;6.716;2022-08-04T20:05:01;5.20;;;4.60;;
21386;SDS011;10854;45.922;6.716;2022-08-04T20:07:31;4.70;;;4.23;;
21386;SDS011;10854;45.922;6.716;2022-08-04T20:09:59;4.25;;;3.83;;
21386;SDS011;10854;45.922;6.716;2022-08-04T20:12:29;5.97;;;4.20;;
21386;SDS011;10854;45.922;6.716;2022-08-04T20:14:58;4.40;;;3.22;;
21386;SDS011;10854;45.922;6.716;2022-08-04T20:17:27;3.43;;;3.13;;
21386;SDS011;10854;45.922;6.716;2022-08-04T20:19:55;3.83;;;3.35;;
21386;SDS011;10854;45.922;6.716;2022-08-04T20:22:24;4.18;;;3.78;;
21386;SDS011;10854;45.922;6.716;2022-08-04T20:24:53;4.27;;;3.20;;
21386;SDS011;10854;45.922;6.716;2022-08-04T20:27:26;3.75;;;3.33;;
21386;SDS011;10854;45.922;6.716;2022-08-04T20:29:54;3.30;;;2.90;;
21386;SDS011;10854;45.922;6.716;2022-08-04T20:32:24;4.67;;;3.30;;
21386;SDS011;10854;45.922;6.716;2022-08-04T20:34:54;3.30;;;3.00;;
21386;SDS011;10854;45.922;6.716;2022-08-04T20:37:24;3.27;;;3.07;;
21386;SDS011;10854;45.922;6.716;2022-08-04T20:42:24;3.17;;;2.97;;
21386;SDS011;10854;45.922;6.716;2022-08-04T20:44:54;3.40;;;3.10;;
21386;SDS011;10854;45.922;6.716;2022-08-04T20:47:23;3.25;;;2.97;;
21386;SDS011;10854;45.922;6.716;2022-08-04T20:49:54;4.07;;;3.33;;
21386;SDS011;10854;45.922;6.716;2022-08-04T20:52:24;3.47;;;3.17;;
21386;SDS011;10854;45.922;6.716;2022-08-04T20:54:52;4.05;;;3.50;;
21386;SDS011;10854;45.922;6.716;2022-08-04T20:57:22;3.30;;;3.00;;
21386;SDS011;10854;45.922;6.716;2022-08-04T20:59:50;6.00;;;3.50;;
21386;SDS011;10854;45.922;6.716;2022-08-04T21:02:19;3.73;;;3.23;;
21386;SDS011;10854;45.922;6.716;2022-08-04T21:04:48;4.43;;;3.80;;
21386;SDS011;10854;45.922;6.716;2022-08-04T21:07:17;3.88;;;3.47;;
21386;SDS011;10854;45.922;6.716;2022-08-04T21:09:45;4.55;;;3.55;;
21386;SDS011;10854;45.922;6.716;2022-08-04T21:12:17;3.70;;;3.40;;
21386;SDS011;10854;45.922;6.716;2022-08-04T21:14:46;3.22;;;2.92;;
21386;SDS011;10854;45.922;6.716;2022-08-04T21:17:15;3.27;;;2.70;;
21386;SDS011;10854;45.922;6.716;2022-08-04T21:19:43;3.23;;;2.93;;
21386;SDS011;10854;45.922;6.716;2022-08-04T21:22:12;3.25;;;2.70;;
21386;SDS011;10854;45.922;6.716;2022-08-04T21:24:41;5.10;;;3.20;;
21386;SDS011;10854;45.922;6.716;2022-08-04T21:27:09;3.33;;;2.88;;
21386;SDS011;10854;45.922;6.716;2022-08-04T21:29:38;3.67;;;2.83;;
21386;SDS011;10854;45.922;6.716;2022-08-04T21:32:07;3.30;;;3.00;;
21386;SDS011;10854;45.922;6.716;2022-08-04T21:34:36;3.40;;;3.03;;
21386;SDS011;10854;45.922;6.716;2022-08-04T21:37:04;4.53;;;2.90;;
21386;SDS011;10854;45.922;6.716;2022-08-04T21:39:35;3.35;;;2.90;;
21386;SDS011;10854;45.922;6.716;2022-08-04T21:42:06;3.25;;;2.95;;
21386;SDS011;10854;45.922;6.716;2022-08-04T21:44:47;3.80;;;3.30;;
21386;SDS011;10854;45.922;6.716;2022-08-04T21:47:16;3.65;;;3.28;;
21386;SDS011;10854;45.922;6.716;2022-08-04T21:49:44;3.55;;;3.10;;
21386;SDS011;10854;45.922;6.716;2022-08-04T21:52:13;4.28;;;3.13;;
21386;SDS011;10854;45.922;6.716;2022-08-04T21:54:41;3.90;;;3.13;;
21386;SDS011;10854;45.922;6.716;2022-08-04T21:57:10;7.78;;;4.03;;
21386;SDS011;10854;45.922;6.716;2022-08-04T21:59:38;3.67;;;3.17;;
21386;SDS011;10854;45.922;6.716;2022-08-04T22:02:07;3.47;;;3.17;;
21386;SDS011;10854;45.922;6.716;2022-08-04T22:04:37;4.75;;;3.47;;
21386;SDS011;10854;45.922;6.716;2022-08-04T22:07:06;4.03;;;3.42;;
21386;SDS011;10854;45.922;6.716;2022-08-04T22:09:35;3.80;;;3.50;;
21386;SDS011;10854;45.922;6.716;2022-08-04T22:12:04;3.80;;;3.50;;
21386;SDS011;10854;45.922;6.716;2022-08-04T22:14:33;3.93;;;3.43;;
21386;SDS011;10854;45.922;6.716;2022-08-04T22:17:01;5.97;;;3.53;;
21386;SDS011;10854;45.922;6.716;2022-08-04T22:19:30;4.10;;;3.70;;
21386;SDS011;10854;45.922;6.716;2022-08-04T22:22:00;3.47;;;3.23;;
21386;SDS011;10854;45.922;6.716;2022-08-04T22:24:30;4.50;;;3.67;;
21386;SDS011;10854;45.922;6.716;2022-08-04T22:26:58;4.03;;;3.47;;
21386;SDS011;10854;45.922;6.716;2022-08-04T22:29:27;3.70;;;3.40;;
21386;SDS011;10854;45.922;6.716;2022-08-04T22:31:55;4.10;;;3.27;;
21386;SDS011;10854;45.922;6.716;2022-08-04T22:34:24;3.57;;;3.27;;
21386;SDS011;10854;45.922;6.716;2022-08-04T22:36:54;4.13;;;3.47;;
21386;SDS011;10854;45.922;6.716;2022-08-04T22:39:22;3.90;;;3.50;;
21386;SDS011;10854;45.922;6.716;2022-08-04T22:41:51;4.57;;;3.40;;
21386;SDS011;10854;45.922;6.716;2022-08-04T22:44:19;4.77;;;3.30;;